createdAt,value
2022-08-14T00:02:20.021Z,6.35
2022-08-14T00:04:46.906Z,10.10
2022-08-14T00:07:17.242Z,5.15
2022-08-14T00:12:48.065Z,5.05
2022-08-14T00:15:23.910Z,5.43
2022-08-14T00:17:54.152Z,5.68
2022-08-14T00:20:30.531Z,6.20
2022-08-14T00:23:12.059Z,6.18
2022-08-14T00:25:42.854Z,5.47
2022-08-14T00:28:15.157Z,5.13
2022-08-14T00:30:45.807Z,5.38
2022-08-14T00:33:16.098Z,5.53
2022-08-14T00:36:36.780Z,6.07
2022-08-14T00:38:31.803Z,5.57
2022-08-14T00:40:59.417Z,5.68
2022-08-14T00:43:32.320Z,6.30
2022-08-14T00:46:08.059Z,5.50
2022-08-14T00:48:38.242Z,5.45
2022-08-14T00:51:09.092Z,4.38
2022-08-14T00:53:37.671Z,4.95
2022-08-14T00:56:08.460Z,5.72
2022-08-14T00:58:44.897Z,5.60
2022-08-14T01:01:16.680Z,5.72
2022-08-14T01:03:44.753Z,5.72
2022-08-14T01:06:18.418Z,5.38
2022-08-14T01:08:52.024Z,6.60
2022-08-14T01:11:35.554Z,7.03
2022-08-14T01:14:18.142Z,5.15
2022-08-14T01:16:53.189Z,6.40
2022-08-14T01:19:41.597Z,4.88
2022-08-14T01:22:12.670Z,6.40
2022-08-14T01:24:41.567Z,5.68
2022-08-14T01:27:18.804Z,5.70
2022-08-14T01:30:01.095Z,5.22
2022-08-14T01:32:44.782Z,5.45
2022-08-14T01:35:17.957Z,6.03
2022-08-14T01:37:59.230Z,4.93
2022-08-14T01:40:36.985Z,6.15
2022-08-14T01:43:14.686Z,5.20
2022-08-14T01:45:49.019Z,5.38
2022-08-14T01:48:45.322Z,5.80
2022-08-14T01:51:19.434Z,5.40
2022-08-14T01:53:54.929Z,5.25
2022-08-14T01:56:37.310Z,5.43
2022-08-14T01:59:18.338Z,5.93
2022-08-14T02:01:58.819Z,6.85
2022-08-14T02:04:55.872Z,6.45
2022-08-14T02:07:34.235Z,5.07
2022-08-14T02:10:18.546Z,6.15
2022-08-14T02:12:56.910Z,6.75
2022-08-14T02:15:25.897Z,6.97
2022-08-14T02:17:54.455Z,7.15
2022-08-14T02:20:23.677Z,7.30
2022-08-14T02:22:55.055Z,7.57
2022-08-14T02:25:29.897Z,7.65
2022-08-14T02:28:23.645Z,6.82
2022-08-14T02:30:46.159Z,7.13
2022-08-14T02:33:13.019Z,7.10
2022-08-14T02:35:43.659Z,7.28
2022-08-14T02:38:30.281Z,7.07
2022-08-14T02:41:01.933Z,6.78
2022-08-14T02:43:37.218Z,6.45
2022-08-14T02:46:13.745Z,7.53
2022-08-14T02:49:01.313Z,7.13
2022-08-14T02:51:34.086Z,6.70
2022-08-14T02:54:03.539Z,6.13
2022-08-14T02:57:15.356Z,5.70
2022-08-14T02:59:19.199Z,5.65
2022-08-14T03:01:51.131Z,6.03
2022-08-14T03:04:22.101Z,6.18
2022-08-14T03:06:57.517Z,5.60
2022-08-14T03:09:41.842Z,5.30
2022-08-14T03:12:31.781Z,4.53
2022-08-14T03:15:03.405Z,4.93
2022-08-14T03:17:31.815Z,5.55
2022-08-14T03:20:11.270Z,5.47
2022-08-14T03:22:41.850Z,5.35
2022-08-14T03:25:09.975Z,5.22
2022-08-14T03:27:48.610Z,4.80
2022-08-14T03:30:24.562Z,4.80
2022-08-14T03:33:07.234Z,6.32
2022-08-14T03:35:39.781Z,5.97
2022-08-14T03:39:14.094Z,6.28
2022-08-14T03:40:59.567Z,6.35
2022-08-14T03:43:28.441Z,5.95
2022-08-14T03:46:00.544Z,7.28
2022-08-14T03:48:30.156Z,6.43
2022-08-14T03:50:59.869Z,5.50
2022-08-14T03:53:28.472Z,5.40
2022-08-14T03:55:59.171Z,6.32
2022-08-14T03:58:36.285Z,5.68
2022-08-14T04:01:06.420Z,6.15
2022-08-14T04:06:05.934Z,4.82
2022-08-14T04:08:41.888Z,6.07
2022-08-14T04:11:10.334Z,5.75
2022-08-14T04:13:41.190Z,5.30
2022-08-14T04:16:15.549Z,5.20
2022-08-14T04:18:44.947Z,5.32
2022-08-14T04:23:44.744Z,5.35
2022-08-14T04:26:27.483Z,5.93
2022-08-14T04:29:14.278Z,6.15
2022-08-14T04:33:00.980Z,6.32
2022-08-14T04:34:30.452Z,5.07
2022-08-14T04:37:17.484Z,5.55
2022-08-14T04:40:10.812Z,6.15
2022-08-14T04:42:57.618Z,5.30
2022-08-14T04:45:32.987Z,5.15
2022-08-14T04:48:31.578Z,5.88
2022-08-14T04:51:04.216Z,7.25
2022-08-14T04:53:36.054Z,7.37
2022-08-14T04:56:30.048Z,8.13
2022-08-14T04:58:59.496Z,7.93
2022-08-14T05:01:28.906Z,11.65
2022-08-14T05:04:00.958Z,7.93
2022-08-14T05:06:37.133Z,6.82
2022-08-14T05:09:10.498Z,6.57
2022-08-14T05:11:42.048Z,7.10
2022-08-14T05:14:33.108Z,7.82
2022-08-14T05:17:01.649Z,8.18
2022-08-14T05:19:32.018Z,8.68
2022-08-14T05:22:16.087Z,7.30
2022-08-14T05:24:48.814Z,7.90
2022-08-14T05:27:23.042Z,7.60
2022-08-14T05:29:53.598Z,10.10
2022-08-14T05:32:23.104Z,7.72
2022-08-14T05:34:58.607Z,7.47
2022-08-14T05:37:27.362Z,8.20
2022-08-14T05:39:55.664Z,8.45
2022-08-14T05:42:26.907Z,7.65
2022-08-14T05:44:55.260Z,8.02
2022-08-14T05:47:23.338Z,8.00
2022-08-14T05:49:51.625Z,6.90
2022-08-14T05:52:38.650Z,8.40
2022-08-14T05:55:09.099Z,9.20
2022-08-14T05:57:49.128Z,8.95
2022-08-14T06:00:28.403Z,9.30
2022-08-14T06:03:00.191Z,9.00
2022-08-14T06:05:28.722Z,8.73
2022-08-14T06:07:57.630Z,7.60
2022-08-14T06:10:25.183Z,7.82
2022-08-14T06:12:55.676Z,8.85
2022-08-14T06:15:32.734Z,7.53
2022-08-14T06:18:00.453Z,8.95
2022-08-14T06:20:28.482Z,8.82
2022-08-14T06:22:57.088Z,6.25
2022-08-14T06:25:24.888Z,8.32
2022-08-14T06:27:52.420Z,7.90
2022-08-14T06:30:23.638Z,6.85
2022-08-14T06:32:57.492Z,6.25
2022-08-14T06:35:24.602Z,7.28
2022-08-14T06:37:54.854Z,7.47
2022-08-14T06:40:47.136Z,6.13
2022-08-14T06:43:15.731Z,7.35
2022-08-14T06:45:48.354Z,6.97
2022-08-14T06:48:24.047Z,6.45
2022-08-14T06:50:52.786Z,8.02
2022-08-14T06:53:20.817Z,7.05
2022-08-14T06:55:53.208Z,5.88
2022-08-14T06:58:29.380Z,5.38
2022-08-14T07:01:23.034Z,7.28
2022-08-14T07:04:18.793Z,7.13
2022-08-14T07:06:50.767Z,5.90
2022-08-14T07:09:22.594Z,7.45
2022-08-14T07:11:51.906Z,7.10
2022-08-14T07:14:18.902Z,7.72
2022-08-14T07:16:45.944Z,5.60
2022-08-14T07:19:12.857Z,6.30
2022-08-14T07:21:39.791Z,5.65
2022-08-14T07:24:09.798Z,5.32
2022-08-14T07:26:49.358Z,4.95
2022-08-14T07:29:17.690Z,5.35
2022-08-14T07:31:49.749Z,5.90
2022-08-14T07:34:35.985Z,4.78
2022-08-14T07:37:04.085Z,4.55
2022-08-14T07:39:30.892Z,4.85
2022-08-14T07:42:01.896Z,6.45
2022-08-14T07:44:35.485Z,5.80
2022-08-14T07:47:13.093Z,5.00
2022-08-14T07:49:41.803Z,4.35
2022-08-14T07:52:10.580Z,5.45
2022-08-14T07:54:41.692Z,4.32
2022-08-14T07:57:12.472Z,4.80
2022-08-14T07:59:49.580Z,3.88
2022-08-14T08:02:20.338Z,4.30
2022-08-14T08:04:58.778Z,5.40
2022-08-14T08:07:30.830Z,4.57
2022-08-14T08:09:59.884Z,4.40
2022-08-14T08:12:31.169Z,3.15
2022-08-14T08:15:03.265Z,3.92
2022-08-14T08:17:38.574Z,6.50
2022-08-14T08:20:16.120Z,4.18
2022-08-14T08:22:49.943Z,3.00
2022-08-14T08:25:24.472Z,2.15
2022-08-14T08:28:08.164Z,2.23
2022-08-14T08:30:49.593Z,2.50
2022-08-14T08:33:18.560Z,2.28
2022-08-14T08:35:50.588Z,2.42
2022-08-14T08:39:18.147Z,2.00
2022-08-14T08:43:46.229Z,2.70
2022-08-14T08:46:21.761Z,4.70
2022-08-14T08:51:36.240Z,2.60
2022-08-14T08:54:04.241Z,3.28
2022-08-14T08:56:39.602Z,3.00
2022-08-14T08:59:20.523Z,2.60
2022-08-14T09:01:56.232Z,3.05
2022-08-14T09:04:34.712Z,2.88
2022-08-14T09:07:09.895Z,2.88
2022-08-14T09:09:54.154Z,2.90
2022-08-14T09:12:27.071Z,2.85
2022-08-14T09:14:59.559Z,2.47
2022-08-14T09:17:26.931Z,2.47
2022-08-14T09:19:54.219Z,2.42
2022-08-14T09:22:35.628Z,3.03
2022-08-14T09:25:10.081Z,2.20
2022-08-14T09:27:39.556Z,1.63
2022-08-14T09:30:31.337Z,2.55
2022-08-14T09:33:06.080Z,2.45
2022-08-14T09:36:03.491Z,1.92
2022-08-14T09:39:23.192Z,3.35
2022-08-14T09:42:21.347Z,1.58
2022-08-14T09:45:24.051Z,2.40
2022-08-14T09:47:56.395Z,2.13
2022-08-14T09:50:26.836Z,2.40
2022-08-14T09:53:05.775Z,1.77
2022-08-14T09:55:45.563Z,2.40
2022-08-14T09:58:19.595Z,2.35
2022-08-14T10:00:50.262Z,2.10
2022-08-14T10:03:33.114Z,2.35
2022-08-14T10:06:14.570Z,1.83
2022-08-14T10:09:04.855Z,1.80
2022-08-14T10:11:36.287Z,1.95
2022-08-14T10:14:29.391Z,1.50
2022-08-14T10:17:06.238Z,2.17
2022-08-14T10:19:35.986Z,2.10
2022-08-14T10:23:14.215Z,3.47
2022-08-14T10:25:12.389Z,3.28
2022-08-14T10:27:39.387Z,2.00
2022-08-14T10:30:13.948Z,1.75
2022-08-14T10:32:51.455Z,3.25
2022-08-14T10:35:22.450Z,2.35
2022-08-14T10:37:51.947Z,2.20
2022-08-14T10:43:22.694Z,1.90
2022-08-14T10:46:21.334Z,2.00
2022-08-14T10:49:00.447Z,2.10
2022-08-14T10:51:29.934Z,2.08
2022-08-14T10:53:58.603Z,2.30
2022-08-14T10:56:37.813Z,2.70
2022-08-14T10:59:08.285Z,3.63
2022-08-14T11:01:41.268Z,3.33
2022-08-14T11:04:27.544Z,2.53
2022-08-14T11:06:56.980Z,2.10
2022-08-14T11:09:26.277Z,1.52
2022-08-14T11:12:34.094Z,2.50
2022-08-14T11:15:02.075Z,2.17
2022-08-14T11:17:32.933Z,2.13
2022-08-14T11:20:01.673Z,2.10
2022-08-14T11:22:52.754Z,2.28
2022-08-14T11:25:21.202Z,2.55
2022-08-14T11:27:49.128Z,2.70
2022-08-14T11:30:50.314Z,1.80
2022-08-14T11:33:09.070Z,2.00
2022-08-14T11:35:47.314Z,2.33
2022-08-14T11:40:47.405Z,2.15
2022-08-14T11:43:15.666Z,2.08
2022-08-14T11:45:48.357Z,2.40
2022-08-14T11:49:02.360Z,1.90
2022-08-14T11:51:24.047Z,2.25
2022-08-14T11:54:19.481Z,1.90
2022-08-14T11:56:50.647Z,1.70
2022-08-14T11:59:26.585Z,1.70
2022-08-14T12:03:00.782Z,1.88
2022-08-14T12:04:58.380Z,1.85
2022-08-14T12:07:25.349Z,2.42
2022-08-14T12:09:55.953Z,2.10
2022-08-14T12:12:45.541Z,1.73
2022-08-14T12:15:12.589Z,1.77
2022-08-14T12:17:53.479Z,2.03
2022-08-14T12:20:34.023Z,1.98
2022-08-14T12:23:02.373Z,1.73
2022-08-14T12:25:34.626Z,2.00
2022-08-14T12:28:10.500Z,1.40
2022-08-14T12:30:56.737Z,1.50
2022-08-14T12:33:33.359Z,1.42
2022-08-14T12:36:08.106Z,1.75
2022-08-14T12:38:43.619Z,1.63
2022-08-14T12:41:21.744Z,1.80
2022-08-14T12:43:55.649Z,1.33
2022-08-14T12:46:46.903Z,1.65
2022-08-14T12:49:19.034Z,1.85
2022-08-14T12:51:57.808Z,1.50
2022-08-14T12:54:28.046Z,1.50
2022-08-14T12:57:19.421Z,1.70
2022-08-14T12:59:47.776Z,1.33
2022-08-14T13:02:27.171Z,1.20
2022-08-14T13:04:56.529Z,1.33
2022-08-14T13:07:26.611Z,1.30
2022-08-14T13:09:59.218Z,2.60
2022-08-14T13:12:31.192Z,1.50
2022-08-14T13:15:01.118Z,1.38
2022-08-14T13:17:28.464Z,1.42
2022-08-14T13:19:58.225Z,2.08
2022-08-14T13:22:32.336Z,1.42
2022-08-14T13:25:05.279Z,1.25
2022-08-14T13:27:34.020Z,1.88
2022-08-14T13:30:23.717Z,2.13
2022-08-14T13:32:53.698Z,1.80
2022-08-14T13:35:22.575Z,1.80
2022-08-14T13:40:21.531Z,1.50
2022-08-14T13:42:53.572Z,1.70
2022-08-14T13:45:24.362Z,1.77
2022-08-14T13:48:28.466Z,1.80
2022-08-14T13:50:59.699Z,1.98
2022-08-14T13:53:33.445Z,2.28
2022-08-14T13:56:02.250Z,1.95
2022-08-14T13:58:35.648Z,1.83
2022-08-14T14:01:04.548Z,1.75
2022-08-14T14:03:35.331Z,1.95
2022-08-14T14:06:03.584Z,1.48
2022-08-14T14:08:46.119Z,1.42
2022-08-14T14:11:17.255Z,1.83
2022-08-14T14:13:46.468Z,1.85
2022-08-14T14:16:22.131Z,1.92
2022-08-14T14:19:06.729Z,1.75
2022-08-14T14:21:36.718Z,1.65
2022-08-14T14:24:04.974Z,1.38
2022-08-14T14:26:33.313Z,1.63
2022-08-14T14:29:07.675Z,1.70
2022-08-14T14:31:38.866Z,1.70
2022-08-14T14:34:20.127Z,1.58
2022-08-14T14:37:03.034Z,1.90
2022-08-14T14:39:31.731Z,2.00
2022-08-14T14:42:06.382Z,1.83
2022-08-14T14:44:36.139Z,1.95
2022-08-14T14:47:03.248Z,1.60
2022-08-14T14:49:51.443Z,2.00
2022-08-14T14:52:27.583Z,1.77
2022-08-14T14:54:59.248Z,1.92
2022-08-14T14:57:34.849Z,1.98
2022-08-14T15:00:05.667Z,2.00
2022-08-14T15:02:37.375Z,2.03
2022-08-14T15:05:05.784Z,2.28
2022-08-14T15:07:33.166Z,1.73
2022-08-14T15:10:01.616Z,2.13
2022-08-14T15:12:55.127Z,2.10
2022-08-14T15:15:17.579Z,2.08
2022-08-14T15:17:45.282Z,2.65
2022-08-14T15:22:57.787Z,1.90
2022-08-14T15:25:24.679Z,2.28
2022-08-14T15:27:54.348Z,1.80
2022-08-14T15:30:24.231Z,3.00
2022-08-14T15:32:51.899Z,3.13
2022-08-14T15:35:22.346Z,2.20
2022-08-14T15:37:55.665Z,1.80
2022-08-14T15:40:23.588Z,2.20
2022-08-14T15:42:50.631Z,1.90
2022-08-14T15:45:19.109Z,3.30
2022-08-14T15:47:45.894Z,1.70
2022-08-14T15:50:19.415Z,1.80
2022-08-14T15:52:46.745Z,2.00
2022-08-14T15:55:15.447Z,2.15
2022-08-14T15:58:01.689Z,1.90
2022-08-14T16:00:52.444Z,1.73
2022-08-14T16:03:27.690Z,1.40
2022-08-14T16:06:15.630Z,1.90
2022-08-14T16:08:58.791Z,1.65
2022-08-14T16:11:28.844Z,1.63
2022-08-14T16:13:59.813Z,1.80
2022-08-14T16:16:47.491Z,1.70
2022-08-14T16:19:19.648Z,2.58
2022-08-14T16:22:02.030Z,2.05
2022-08-14T16:24:33.678Z,2.28
2022-08-14T16:29:49.044Z,2.05
2022-08-14T16:35:03.229Z,1.67
2022-08-14T16:37:34.400Z,2.55
2022-08-14T16:40:03.684Z,1.95
2022-08-14T16:43:02.757Z,2.22
2022-08-14T16:45:25.972Z,1.52
2022-08-14T16:47:54.337Z,1.60
2022-08-14T16:50:40.787Z,1.88
2022-08-14T16:53:09.602Z,1.80
2022-08-14T16:55:53.615Z,2.00
2022-08-14T16:58:29.981Z,2.05
2022-08-14T17:01:24.655Z,2.22
2022-08-14T17:04:24.627Z,2.10
2022-08-14T17:06:55.150Z,2.10
2022-08-14T17:09:43.569Z,2.30
2022-08-14T17:12:10.640Z,1.90
2022-08-14T17:15:03.470Z,2.22
2022-08-14T17:17:33.384Z,1.90
2022-08-14T17:20:02.319Z,1.88
2022-08-14T17:22:57.426Z,2.05
2022-08-14T17:25:36.579Z,2.03
2022-08-14T17:28:49.859Z,2.28
2022-08-14T17:31:02.722Z,2.38
2022-08-14T17:33:33.821Z,2.10
2022-08-14T17:36:24.266Z,2.10
2022-08-14T17:39:06.365Z,2.83
2022-08-14T17:42:02.994Z,2.50
2022-08-14T17:44:45.760Z,2.10
2022-08-14T17:47:18.358Z,2.65
2022-08-14T17:49:51.866Z,2.05
2022-08-14T17:52:34.300Z,2.22
2022-08-14T17:55:03.440Z,2.40
2022-08-14T17:57:35.463Z,2.33
2022-08-14T18:00:14.671Z,2.08
2022-08-14T18:02:50.667Z,2.40
2022-08-14T18:05:23.274Z,2.20
2022-08-14T18:08:32.916Z,3.10
2022-08-14T18:10:56.809Z,2.40
2022-08-14T18:13:49.709Z,2.20
2022-08-14T18:16:20.545Z,2.92
2022-08-14T18:18:51.412Z,2.00
2022-08-14T18:21:40.730Z,2.20
2022-08-14T18:24:29.206Z,2.22
2022-08-14T18:27:01.910Z,2.05
2022-08-14T18:29:31.494Z,2.55
2022-08-14T18:31:59.238Z,2.20
2022-08-14T18:34:51.040Z,2.55
2022-08-14T18:37:21.325Z,2.75
2022-08-14T18:40:03.375Z,2.05
2022-08-14T18:42:35.020Z,2.55
2022-08-14T18:45:12.723Z,2.35
2022-08-14T18:50:32.423Z,2.35
2022-08-14T18:53:10.946Z,2.75
2022-08-14T18:55:53.071Z,2.40
2022-08-14T18:58:30.940Z,3.20
2022-08-14T19:01:00.692Z,3.05
2022-08-14T19:03:39.245Z,2.60
2022-08-14T19:06:10.603Z,3.10
2022-08-14T19:08:49.660Z,2.83
2022-08-14T19:11:31.760Z,2.20
2022-08-14T19:14:00.070Z,2.42
2022-08-14T19:16:37.525Z,2.78
2022-08-14T19:19:11.910Z,3.33
2022-08-14T19:21:40.871Z,2.92
2022-08-14T19:24:29.320Z,2.65
2022-08-14T19:27:18.994Z,3.10
2022-08-14T19:29:47.927Z,2.83
2022-08-14T19:32:36.566Z,3.72
2022-08-14T19:35:14.930Z,3.20
2022-08-14T19:37:52.135Z,3.28
2022-08-14T19:40:42.733Z,3.35
2022-08-14T19:43:10.722Z,3.65
2022-08-14T19:45:39.136Z,3.88
2022-08-14T19:48:15.733Z,4.35
2022-08-14T19:50:46.747Z,3.60
2022-08-14T19:53:17.734Z,3.60
2022-08-14T19:55:57.152Z,4.97
2022-08-14T19:58:55.072Z,3.80
2022-08-14T20:01:36.385Z,4.40
2022-08-14T20:05:21.660Z,4.88
2022-08-14T20:08:09.132Z,4.38
2022-08-14T20:11:07.904Z,5.55
2022-08-14T20:13:32.545Z,4.47
2022-08-14T20:16:12.984Z,5.05
2022-08-14T20:18:49.941Z,4.05
2022-08-14T20:21:18.707Z,4.53
2022-08-14T20:23:48.182Z,5.05
2022-08-14T20:26:31.232Z,4.25
2022-08-14T20:29:04.626Z,6.45
2022-08-14T20:31:37.633Z,5.05
2022-08-14T20:34:24.929Z,5.10
2022-08-14T20:37:09.843Z,5.20
2022-08-14T20:39:54.397Z,4.55
2022-08-14T20:42:43.662Z,5.00
2022-08-14T20:45:23.724Z,5.05
2022-08-14T20:48:03.099Z,4.55
2022-08-14T20:50:36.556Z,4.57
2022-08-14T20:53:29.130Z,4.38
2022-08-14T20:56:03.530Z,5.05
2022-08-14T20:58:44.088Z,4.80
2022-08-14T21:03:56.898Z,6.20
2022-08-14T21:07:23.210Z,5.07
2022-08-14T21:10:04.597Z,5.05
2022-08-14T21:12:35.091Z,6.05
2022-08-14T21:15:02.550Z,4.55
2022-08-14T21:17:30.375Z,5.80
2022-08-14T21:19:57.458Z,5.97
2022-08-14T21:22:25.568Z,5.40
2022-08-14T21:24:59.860Z,5.20
2022-08-14T21:27:29.123Z,6.35
2022-08-14T21:30:08.519Z,6.40
2022-08-14T21:32:47.057Z,5.90
2022-08-14T21:35:20.253Z,6.95
2022-08-14T21:37:50.759Z,6.70
2022-08-14T21:40:42.405Z,6.95
2022-08-14T21:43:17.148Z,6.07
2022-08-14T21:45:53.338Z,5.80
2022-08-14T21:48:22.336Z,6.68
2022-08-14T21:51:01.428Z,6.43
2022-08-14T21:53:34.427Z,6.35
2022-08-14T21:56:03.260Z,7.45
2022-08-14T21:58:53.012Z,7.13
2022-08-14T22:01:19.575Z,6.03
2022-08-14T22:03:55.050Z,6.85
2022-08-14T22:06:29.102Z,6.70
2022-08-14T22:08:58.267Z,6.93
2022-08-14T22:11:26.107Z,6.30
2022-08-14T22:13:56.130Z,6.60
2022-08-14T22:17:01.806Z,6.65
2022-08-14T22:19:20.257Z,6.35
2022-08-14T22:21:49.183Z,6.18
2022-08-14T22:24:37.604Z,6.45
2022-08-14T22:27:06.915Z,7.68
2022-08-14T22:29:34.575Z,6.20
2022-08-14T22:32:05.235Z,6.80
2022-08-14T22:34:34.285Z,7.60
2022-08-14T22:37:01.719Z,8.05
2022-08-14T22:40:17.124Z,7.18
2022-08-14T22:42:21.180Z,6.88
2022-08-14T22:44:52.019Z,7.25
2022-08-14T22:47:25.073Z,7.47
2022-08-14T22:50:32.024Z,8.05
2022-08-14T22:52:39.913Z,7.38
2022-08-14T22:55:07.780Z,7.50
2022-08-14T22:57:37.318Z,6.88
2022-08-14T23:00:12.245Z,7.05
2022-08-14T23:02:41.871Z,6.40
2022-08-14T23:05:15.339Z,6.55
2022-08-14T23:08:59.739Z,7.32
2022-08-14T23:10:32.305Z,6.85
2022-08-14T23:13:01.487Z,6.80
2022-08-14T23:15:29.948Z,6.43
2022-08-14T23:17:57.797Z,6.60
2022-08-14T23:20:29.215Z,7.15
2022-08-14T23:22:57.394Z,7.05
2022-08-14T23:25:44.573Z,8.90
2022-08-14T23:28:34.990Z,7.05
2022-08-14T23:31:10.276Z,7.70
2022-08-14T23:33:41.970Z,6.90
2022-08-14T23:36:28.438Z,6.93
2022-08-14T23:39:00.429Z,7.05
2022-08-14T23:41:27.393Z,6.93
2022-08-14T23:44:15.473Z,6.80
2022-08-14T23:46:44.128Z,5.80
2022-08-14T23:49:12.411Z,5.78
2022-08-14T23:51:39.550Z,6.57
2022-08-14T23:54:48.765Z,6.32
2022-08-14T23:57:02.873Z,5.78
2022-08-14T23:59:31.577Z,6.35
